sensor_id;sensor_type;location;lat;lon;timestamp;P1;durP1;ratioP1;P2;durP2;ratioP2
33190;SDS011;19554;42.652;23.364;2023-08-20T00:02:15;11.88;;;6.60;;
33190;SDS011;19554;42.652;23.364;2023-08-20T00:04:44;9.50;;;6.45;;
33190;SDS011;19554;42.652;23.364;2023-08-20T00:07:11;10.30;;;6.53;;
33190;SDS011;19554;42.652;23.364;2023-08-20T00:09:37;7.25;;;6.38;;
33190;SDS011;19554;42.652;23.364;2023-08-20T00:12:02;14.40;;;7.18;;
33190;SDS011;19554;42.652;23.364;2023-08-20T00:17:18;9.82;;;6.25;;
33190;SDS011;19554;42.652;23.364;2023-08-20T00:19:44;10.38;;;6.68;;
33190;SDS011;19554;42.652;23.364;2023-08-20T00:22:10;14.10;;;7.07;;
33190;SDS011;19554;42.652;23.364;2023-08-20T00:24:35;9.05;;;7.10;;
33190;SDS011;19554;42.652;23.364;2023-08-20T00:27:01;8.35;;;7.40;;
33190;SDS011;19554;42.652;23.364;2023-08-20T00:29:26;14.70;;;6.55;;
33190;SDS011;19554;42.652;23.364;2023-08-20T00:31:52;11.30;;;7.57;;
33190;SDS011;19554;42.652;23.364;2023-08-20T00:34:17;9.05;;;6.78;;
33190;SDS011;19554;42.652;23.364;2023-08-20T00:36:42;9.00;;;6.93;;
33190;SDS011;19554;42.652;23.364;2023-08-20T00:39:08;9.32;;;7.47;;
33190;SDS011;19554;42.652;23.364;2023-08-20T00:41:33;8.82;;;7.25;;
33190;SDS011;19554;42.652;23.364;2023-08-20T00:43:58;10.63;;;6.70;;
33190;SDS011;19554;42.652;23.364;2023-08-20T00:46:24;10.55;;;7.88;;
33190;SDS011;19554;42.652;23.364;2023-08-20T00:48:49;10.32;;;8.15;;
33190;SDS011;19554;42.652;23.364;2023-08-20T00:51:14;8.40;;;7.07;;
33190;SDS011;19554;42.652;23.364;2023-08-20T00:53:40;13.20;;;7.65;;
33190;SDS011;19554;42.652;23.364;2023-08-20T00:56:05;9.48;;;7.18;;
33190;SDS011;19554;42.652;23.364;2023-08-20T00:58:31;11.02;;;7.88;;
33190;SDS011;19554;42.652;23.364;2023-08-20T01:00:57;11.35;;;7.28;;
33190;SDS011;19554;42.652;23.364;2023-08-20T01:03:22;12.85;;;7.35;;
33190;SDS011;19554;42.652;23.364;2023-08-20T01:05:50;12.48;;;7.68;;
33190;SDS011;19554;42.652;23.364;2023-08-20T01:08:37;10.73;;;7.78;;
33190;SDS011;19554;42.652;23.364;2023-08-20T01:11:19;10.85;;;7.78;;
33190;SDS011;19554;42.652;23.364;2023-08-20T01:13:50;13.07;;;7.68;;
33190;SDS011;19554;42.652;23.364;2023-08-20T01:16:15;11.52;;;7.80;;
33190;SDS011;19554;42.652;23.364;2023-08-20T01:18:40;10.35;;;7.13;;
33190;SDS011;19554;42.652;23.364;2023-08-20T01:21:11;11.20;;;8.20;;
33190;SDS011;19554;42.652;23.364;2023-08-20T01:24:17;10.73;;;7.15;;
33190;SDS011;19554;42.652;23.364;2023-08-20T01:27:08;11.65;;;7.45;;
33190;SDS011;19554;42.652;23.364;2023-08-20T01:29:44;9.35;;;7.25;;
33190;SDS011;19554;42.652;23.364;2023-08-20T01:32:10;11.50;;;7.40;;
33190;SDS011;19554;42.652;23.364;2023-08-20T01:34:37;8.85;;;7.30;;
33190;SDS011;19554;42.652;23.364;2023-08-20T01:37:03;11.00;;;7.70;;
33190;SDS011;19554;42.652;23.364;2023-08-20T01:39:28;12.23;;;7.75;;
33190;SDS011;19554;42.652;23.364;2023-08-20T01:41:54;11.32;;;7.85;;
33190;SDS011;19554;42.652;23.364;2023-08-20T01:44:19;13.75;;;8.90;;
33190;SDS011;19554;42.652;23.364;2023-08-20T01:46:44;13.25;;;7.97;;
33190;SDS011;19554;42.652;23.364;2023-08-20T01:49:10;9.00;;;7.82;;
33190;SDS011;19554;42.652;23.364;2023-08-20T01:51:35;11.70;;;8.15;;
33190;SDS011;19554;42.652;23.364;2023-08-20T01:54:01;9.32;;;7.78;;
33190;SDS011;19554;42.652;23.364;2023-08-20T01:56:27;16.30;;;8.75;;
33190;SDS011;19554;42.652;23.364;2023-08-20T01:58:52;10.40;;;8.57;;
33190;SDS011;19554;42.652;23.364;2023-08-20T02:01:18;11.48;;;8.20;;
33190;SDS011;19554;42.652;23.364;2023-08-20T02:03:43;13.43;;;8.13;;
33190;SDS011;19554;42.652;23.364;2023-08-20T02:06:09;13.27;;;8.10;;
33190;SDS011;19554;42.652;23.364;2023-08-20T02:08:34;13.60;;;7.95;;
33190;SDS011;19554;42.652;23.364;2023-08-20T02:11:00;10.60;;;8.00;;
33190;SDS011;19554;42.652;23.364;2023-08-20T02:13:26;13.73;;;9.00;;
33190;SDS011;19554;42.652;23.364;2023-08-20T02:16:01;11.15;;;8.30;;
33190;SDS011;19554;42.652;23.364;2023-08-20T02:18:28;10.80;;;8.10;;
33190;SDS011;19554;42.652;23.364;2023-08-20T02:20:53;9.40;;;8.32;;
33190;SDS011;19554;42.652;23.364;2023-08-20T02:23:19;13.57;;;8.60;;
33190;SDS011;19554;42.652;23.364;2023-08-20T02:25:44;11.38;;;8.50;;
33190;SDS011;19554;42.652;23.364;2023-08-20T02:28:10;13.00;;;9.18;;
33190;SDS011;19554;42.652;23.364;2023-08-20T02:30:40;10.18;;;8.65;;
33190;SDS011;19554;42.652;23.364;2023-08-20T02:33:06;12.75;;;8.82;;
33190;SDS011;19554;42.652;23.364;2023-08-20T02:35:31;11.82;;;8.63;;
33190;SDS011;19554;42.652;23.364;2023-08-20T02:37:57;12.68;;;8.95;;
33190;SDS011;19554;42.652;23.364;2023-08-20T02:40:22;13.63;;;8.90;;
33190;SDS011;19554;42.652;23.364;2023-08-20T02:42:47;13.23;;;8.57;;
33190;SDS011;19554;42.652;23.364;2023-08-20T02:45:13;12.13;;;8.60;;
33190;SDS011;19554;42.652;23.364;2023-08-20T02:47:38;12.52;;;8.48;;
33190;SDS011;19554;42.652;23.364;2023-08-20T02:50:04;9.98;;;8.40;;
33190;SDS011;19554;42.652;23.364;2023-08-20T02:52:29;10.98;;;8.80;;
33190;SDS011;19554;42.652;23.364;2023-08-20T02:54:55;10.25;;;8.52;;
33190;SDS011;19554;42.652;23.364;2023-08-20T02:57:20;11.18;;;8.32;;
33190;SDS011;19554;42.652;23.364;2023-08-20T02:59:46;14.93;;;8.32;;
33190;SDS011;19554;42.652;23.364;2023-08-20T03:02:11;9.88;;;8.65;;
33190;SDS011;19554;42.652;23.364;2023-08-20T03:04:37;12.65;;;8.55;;
33190;SDS011;19554;42.652;23.364;2023-08-20T03:07:02;12.20;;;8.52;;
33190;SDS011;19554;42.652;23.364;2023-08-20T03:09:28;12.57;;;8.60;;
33190;SDS011;19554;42.652;23.364;2023-08-20T03:11:53;10.02;;;8.35;;
33190;SDS011;19554;42.652;23.364;2023-08-20T03:14:18;10.90;;;8.35;;
33190;SDS011;19554;42.652;23.364;2023-08-20T03:16:44;10.77;;;8.27;;
33190;SDS011;19554;42.652;23.364;2023-08-20T03:19:09;12.48;;;7.63;;
33190;SDS011;19554;42.652;23.364;2023-08-20T03:21:34;10.13;;;8.10;;
33190;SDS011;19554;42.652;23.364;2023-08-20T03:24:00;9.90;;;7.53;;
33190;SDS011;19554;42.652;23.364;2023-08-20T03:26:25;11.90;;;8.38;;
33190;SDS011;19554;42.652;23.364;2023-08-20T03:28:51;14.25;;;8.55;;
33190;SDS011;19554;42.652;23.364;2023-08-20T03:31:16;11.63;;;7.78;;
33190;SDS011;19554;42.652;23.364;2023-08-20T03:33:42;9.32;;;8.23;;
33190;SDS011;19554;42.652;23.364;2023-08-20T03:36:07;13.00;;;8.60;;
33190;SDS011;19554;42.652;23.364;2023-08-20T03:38:33;13.40;;;7.70;;
33190;SDS011;19554;42.652;23.364;2023-08-20T03:40:58;13.70;;;7.72;;
33190;SDS011;19554;42.652;23.364;2023-08-20T03:43:23;10.10;;;8.02;;
33190;SDS011;19554;42.652;23.364;2023-08-20T03:45:53;8.80;;;7.90;;
33190;SDS011;19554;42.652;23.364;2023-08-20T03:48:18;12.82;;;8.13;;
33190;SDS011;19554;42.652;23.364;2023-08-20T03:50:44;12.05;;;8.48;;
33190;SDS011;19554;42.652;23.364;2023-08-20T03:53:09;14.43;;;8.80;;
33190;SDS011;19554;42.652;23.364;2023-08-20T03:55:35;10.63;;;8.32;;
33190;SDS011;19554;42.652;23.364;2023-08-20T03:58:00;12.48;;;8.48;;
33190;SDS011;19554;42.652;23.364;2023-08-20T04:00:25;12.55;;;7.72;;
33190;SDS011;19554;42.652;23.364;2023-08-20T04:02:51;13.20;;;8.25;;
33190;SDS011;19554;42.652;23.364;2023-08-20T04:05:16;10.73;;;8.13;;
33190;SDS011;19554;42.652;23.364;2023-08-20T04:07:42;10.68;;;7.95;;
33190;SDS011;19554;42.652;23.364;2023-08-20T04:10:07;11.32;;;7.68;;
33190;SDS011;19554;42.652;23.364;2023-08-20T04:12:33;8.88;;;7.97;;
33190;SDS011;19554;42.652;23.364;2023-08-20T04:14:58;11.48;;;8.20;;
33190;SDS011;19554;42.652;23.364;2023-08-20T04:17:24;13.63;;;7.95;;
33190;SDS011;19554;42.652;23.364;2023-08-20T04:19:49;11.75;;;8.25;;
33190;SDS011;19554;42.652;23.364;2023-08-20T04:22:15;17.63;;;8.27;;
33190;SDS011;19554;42.652;23.364;2023-08-20T04:24:40;15.00;;;8.02;;
33190;SDS011;19554;42.652;23.364;2023-08-20T04:27:05;12.00;;;6.93;;
33190;SDS011;19554;42.652;23.364;2023-08-20T04:29:31;11.82;;;7.57;;
33190;SDS011;19554;42.652;23.364;2023-08-20T04:31:56;13.75;;;7.72;;
33190;SDS011;19554;42.652;23.364;2023-08-20T04:34:21;14.30;;;6.88;;
33190;SDS011;19554;42.652;23.364;2023-08-20T04:36:47;21.98;;;8.57;;
33190;SDS011;19554;42.652;23.364;2023-08-20T04:39:12;20.95;;;8.88;;
33190;SDS011;19554;42.652;23.364;2023-08-20T04:41:38;14.52;;;8.07;;
33190;SDS011;19554;42.652;23.364;2023-08-20T04:44:03;16.45;;;8.65;;
33190;SDS011;19554;42.652;23.364;2023-08-20T04:46:29;15.23;;;7.50;;
33190;SDS011;19554;42.652;23.364;2023-08-20T04:48:54;15.52;;;7.75;;
33190;SDS011;19554;42.652;23.364;2023-08-20T04:51:19;14.57;;;7.05;;
33190;SDS011;19554;42.652;23.364;2023-08-20T04:53:45;16.58;;;7.53;;
33190;SDS011;19554;42.652;23.364;2023-08-20T04:56:12;18.45;;;7.35;;
33190;SDS011;19554;42.652;23.364;2023-08-20T04:58:38;14.23;;;7.68;;
33190;SDS011;19554;42.652;23.364;2023-08-20T05:01:03;12.07;;;7.68;;
33190;SDS011;19554;42.652;23.364;2023-08-20T05:03:29;14.20;;;7.45;;
33190;SDS011;19554;42.652;23.364;2023-08-20T05:05:55;14.82;;;8.68;;
33190;SDS011;19554;42.652;23.364;2023-08-20T05:08:20;12.52;;;9.98;;
33190;SDS011;19554;42.652;23.364;2023-08-20T05:10:45;17.67;;;9.30;;
33190;SDS011;19554;42.652;23.364;2023-08-20T05:13:11;17.38;;;7.55;;
33190;SDS011;19554;42.652;23.364;2023-08-20T05:15:36;13.73;;;7.70;;
33190;SDS011;19554;42.652;23.364;2023-08-20T05:18:02;17.10;;;7.75;;
33190;SDS011;19554;42.652;23.364;2023-08-20T05:20:27;12.15;;;7.38;;
33190;SDS011;19554;42.652;23.364;2023-08-20T05:22:53;11.95;;;8.15;;
33190;SDS011;19554;42.652;23.364;2023-08-20T05:25:18;15.60;;;8.48;;
33190;SDS011;19554;42.652;23.364;2023-08-20T05:27:43;11.27;;;8.65;;
33190;SDS011;19554;42.652;23.364;2023-08-20T05:30:09;11.30;;;9.07;;
33190;SDS011;19554;42.652;23.364;2023-08-20T05:32:34;13.27;;;9.90;;
33190;SDS011;19554;42.652;23.364;2023-08-20T05:35:00;15.85;;;9.55;;
33190;SDS011;19554;42.652;23.364;2023-08-20T05:37:25;17.10;;;9.23;;
33190;SDS011;19554;42.652;23.364;2023-08-20T05:39:50;13.20;;;9.50;;
33190;SDS011;19554;42.652;23.364;2023-08-20T05:42:16;14.70;;;10.52;;
33190;SDS011;19554;42.652;23.364;2023-08-20T05:44:41;16.92;;;8.75;;
33190;SDS011;19554;42.652;23.364;2023-08-20T05:47:07;15.93;;;9.38;;
33190;SDS011;19554;42.652;23.364;2023-08-20T05:49:33;12.05;;;9.82;;
33190;SDS011;19554;42.652;23.364;2023-08-20T05:52:00;16.65;;;9.45;;
33190;SDS011;19554;42.652;23.364;2023-08-20T05:54:25;13.40;;;9.80;;
33190;SDS011;19554;42.652;23.364;2023-08-20T05:56:51;11.90;;;9.48;;
33190;SDS011;19554;42.652;23.364;2023-08-20T05:59:16;13.93;;;8.43;;
33190;SDS011;19554;42.652;23.364;2023-08-20T06:01:41;11.70;;;8.52;;
33190;SDS011;19554;42.652;23.364;2023-08-20T06:04:08;13.15;;;9.80;;
33190;SDS011;19554;42.652;23.364;2023-08-20T06:06:34;15.40;;;9.18;;
33190;SDS011;19554;42.652;23.364;2023-08-20T06:09:00;15.73;;;10.13;;
33190;SDS011;19554;42.652;23.364;2023-08-20T06:11:25;12.32;;;8.18;;
33190;SDS011;19554;42.652;23.364;2023-08-20T06:13:50;18.08;;;8.43;;
33190;SDS011;19554;42.652;23.364;2023-08-20T06:16:16;11.70;;;8.07;;
33190;SDS011;19554;42.652;23.364;2023-08-20T06:18:41;13.85;;;8.55;;
33190;SDS011;19554;42.652;23.364;2023-08-20T06:21:06;10.98;;;8.18;;
33190;SDS011;19554;42.652;23.364;2023-08-20T06:23:32;12.50;;;7.95;;
33190;SDS011;19554;42.652;23.364;2023-08-20T06:25:57;10.38;;;7.53;;
33190;SDS011;19554;42.652;23.364;2023-08-20T06:28:23;11.10;;;6.97;;
33190;SDS011;19554;42.652;23.364;2023-08-20T06:30:48;10.18;;;6.97;;
33190;SDS011;19554;42.652;23.364;2023-08-20T06:33:14;12.05;;;6.85;;
33190;SDS011;19554;42.652;23.364;2023-08-20T06:35:39;11.60;;;6.55;;
33190;SDS011;19554;42.652;23.364;2023-08-20T06:38:06;9.05;;;7.65;;
33190;SDS011;19554;42.652;23.364;2023-08-20T06:40:32;10.02;;;7.25;;
33190;SDS011;19554;42.652;23.364;2023-08-20T06:42:58;7.72;;;6.88;;
33190;SDS011;19554;42.652;23.364;2023-08-20T06:45:23;13.68;;;7.18;;
33190;SDS011;19554;42.652;23.364;2023-08-20T06:47:49;9.55;;;7.25;;
33190;SDS011;19554;42.652;23.364;2023-08-20T06:50:14;8.80;;;6.43;;
33190;SDS011;19554;42.652;23.364;2023-08-20T06:52:39;10.80;;;6.55;;
33190;SDS011;19554;42.652;23.364;2023-08-20T06:55:05;13.07;;;6.60;;
33190;SDS011;19554;42.652;23.364;2023-08-20T06:57:30;9.23;;;6.80;;
33190;SDS011;19554;42.652;23.364;2023-08-20T06:59:56;12.10;;;6.82;;
33190;SDS011;19554;42.652;23.364;2023-08-20T07:02:21;11.88;;;6.80;;
33190;SDS011;19554;42.652;23.364;2023-08-20T07:04:47;10.60;;;6.75;;
33190;SDS011;19554;42.652;23.364;2023-08-20T07:07:12;12.10;;;6.82;;
33190;SDS011;19554;42.652;23.364;2023-08-20T07:09:39;14.30;;;6.80;;
33190;SDS011;19554;42.652;23.364;2023-08-20T07:12:05;10.65;;;6.43;;
33190;SDS011;19554;42.652;23.364;2023-08-20T07:14:30;11.95;;;6.57;;
33190;SDS011;19554;42.652;23.364;2023-08-20T07:16:56;13.18;;;6.68;;
33190;SDS011;19554;42.652;23.364;2023-08-20T07:19:21;13.90;;;6.40;;
33190;SDS011;19554;42.652;23.364;2023-08-20T07:21:47;8.05;;;6.40;;
33190;SDS011;19554;42.652;23.364;2023-08-20T07:24:12;8.27;;;6.80;;
33190;SDS011;19554;42.652;23.364;2023-08-20T07:26:38;8.98;;;6.43;;
33190;SDS011;19554;42.652;23.364;2023-08-20T07:29:04;8.85;;;6.32;;
33190;SDS011;19554;42.652;23.364;2023-08-20T07:31:30;7.43;;;5.55;;
33190;SDS011;19554;42.652;23.364;2023-08-20T07:33:59;9.88;;;6.05;;
33190;SDS011;19554;42.652;23.364;2023-08-20T07:36:27;13.02;;;5.70;;
33190;SDS011;19554;42.652;23.364;2023-08-20T07:38:53;7.65;;;5.60;;
33190;SDS011;19554;42.652;23.364;2023-08-20T07:41:19;8.00;;;5.80;;
33190;SDS011;19554;42.652;23.364;2023-08-20T07:43:46;7.82;;;6.05;;
33190;SDS011;19554;42.652;23.364;2023-08-20T07:46:12;7.82;;;6.15;;
33190;SDS011;19554;42.652;23.364;2023-08-20T07:48:38;8.90;;;6.10;;
33190;SDS011;19554;42.652;23.364;2023-08-20T07:51:04;7.28;;;5.55;;
33190;SDS011;19554;42.652;23.364;2023-08-20T07:53:29;7.43;;;6.68;;
33190;SDS011;19554;42.652;23.364;2023-08-20T07:55:56;6.50;;;5.82;;
33190;SDS011;19554;42.652;23.364;2023-08-20T07:58:21;8.23;;;5.60;;
33190;SDS011;19554;42.652;23.364;2023-08-20T08:00:47;7.97;;;6.00;;
33190;SDS011;19554;42.652;23.364;2023-08-20T08:03:12;6.53;;;5.80;;
33190;SDS011;19554;42.652;23.364;2023-08-20T08:05:39;7.38;;;5.55;;
33190;SDS011;19554;42.652;23.364;2023-08-20T08:08:05;8.73;;;5.45;;
33190;SDS011;19554;42.652;23.364;2023-08-20T08:10:31;7.93;;;5.90;;
33190;SDS011;19554;42.652;23.364;2023-08-20T08:12:56;7.68;;;5.70;;
33190;SDS011;19554;42.652;23.364;2023-08-20T08:15:21;6.70;;;5.07;;
33190;SDS011;19554;42.652;23.364;2023-08-20T08:17:47;11.10;;;5.18;;
33190;SDS011;19554;42.652;23.364;2023-08-20T08:20:12;7.63;;;5.13;;
33190;SDS011;19554;42.652;23.364;2023-08-20T08:22:38;5.35;;;4.85;;
33190;SDS011;19554;42.652;23.364;2023-08-20T08:25:04;10.75;;;5.00;;
33190;SDS011;19554;42.652;23.364;2023-08-20T08:27:30;6.22;;;4.90;;
33190;SDS011;19554;42.652;23.364;2023-08-20T08:29:55;8.25;;;5.13;;
33190;SDS011;19554;42.652;23.364;2023-08-20T08:32:20;6.28;;;4.50;;
33190;SDS011;19554;42.652;23.364;2023-08-20T08:34:46;7.38;;;5.03;;
33190;SDS011;19554;42.652;23.364;2023-08-20T08:37:11;8.40;;;4.80;;
33190;SDS011;19554;42.652;23.364;2023-08-20T08:39:36;6.32;;;5.10;;
33190;SDS011;19554;42.652;23.364;2023-08-20T08:42:03;7.28;;;4.03;;
33190;SDS011;19554;42.652;23.364;2023-08-20T08:44:33;8.75;;;4.70;;
33190;SDS011;19554;42.652;23.364;2023-08-20T08:46:59;6.35;;;4.18;;
33190;SDS011;19554;42.652;23.364;2023-08-20T08:49:26;5.30;;;4.43;;
33190;SDS011;19554;42.652;23.364;2023-08-20T08:51:53;5.03;;;3.90;;
33190;SDS011;19554;42.652;23.364;2023-08-20T08:54:21;3.83;;;3.33;;
33190;SDS011;19554;42.652;23.364;2023-08-20T08:56:47;4.00;;;3.60;;
33190;SDS011;19554;42.652;23.364;2023-08-20T08:59:12;5.03;;;4.15;;
33190;SDS011;19554;42.652;23.364;2023-08-20T09:01:38;6.03;;;4.30;;
33190;SDS011;19554;42.652;23.364;2023-08-20T09:04:04;6.18;;;4.10;;
33190;SDS011;19554;42.652;23.364;2023-08-20T09:06:44;5.78;;;4.20;;
33190;SDS011;19554;42.652;23.364;2023-08-20T09:09:13;4.88;;;4.43;;
33190;SDS011;19554;42.652;23.364;2023-08-20T09:11:39;7.45;;;4.40;;
33190;SDS011;19554;42.652;23.364;2023-08-20T09:14:04;6.20;;;4.25;;
33190;SDS011;19554;42.652;23.364;2023-08-20T09:16:30;6.65;;;3.90;;
33190;SDS011;19554;42.652;23.364;2023-08-20T09:18:58;5.03;;;3.92;;
33190;SDS011;19554;42.652;23.364;2023-08-20T09:21:27;5.35;;;3.72;;
33190;SDS011;19554;42.652;23.364;2023-08-20T09:23:56;5.18;;;3.90;;
33190;SDS011;19554;42.652;23.364;2023-08-20T09:26:25;5.32;;;3.70;;
33190;SDS011;19554;42.652;23.364;2023-08-20T09:28:50;4.18;;;3.67;;
33190;SDS011;19554;42.652;23.364;2023-08-20T09:31:15;3.90;;;3.60;;
33190;SDS011;19554;42.652;23.364;2023-08-20T09:36:16;3.88;;;3.58;;
33190;SDS011;19554;42.652;23.364;2023-08-20T09:38:44;5.03;;;3.47;;
33190;SDS011;19554;42.652;23.364;2023-08-20T09:41:09;6.38;;;4.32;;
33190;SDS011;19554;42.652;23.364;2023-08-20T09:43:37;10.30;;;4.40;;
33190;SDS011;19554;42.652;23.364;2023-08-20T09:46:04;7.03;;;3.60;;
33190;SDS011;19554;42.652;23.364;2023-08-20T09:48:34;5.75;;;3.45;;
33190;SDS011;19554;42.652;23.364;2023-08-20T09:51:01;6.22;;;4.07;;
33190;SDS011;19554;42.652;23.364;2023-08-20T09:53:34;7.25;;;3.40;;
33190;SDS011;19554;42.652;23.364;2023-08-20T09:56:36;3.85;;;3.00;;
33190;SDS011;19554;42.652;23.364;2023-08-20T09:58:55;6.88;;;3.47;;
33190;SDS011;19554;42.652;23.364;2023-08-20T10:01:23;7.82;;;3.58;;
33190;SDS011;19554;42.652;23.364;2023-08-20T10:03:49;3.95;;;3.50;;
33190;SDS011;19554;42.652;23.364;2023-08-20T10:06:15;3.55;;;3.20;;
33190;SDS011;19554;42.652;23.364;2023-08-20T10:08:41;4.10;;;3.13;;
33190;SDS011;19554;42.652;23.364;2023-08-20T10:11:06;4.40;;;3.20;;
33190;SDS011;19554;42.652;23.364;2023-08-20T10:13:32;3.67;;;3.13;;
33190;SDS011;19554;42.652;23.364;2023-08-20T10:15:57;4.13;;;3.55;;
33190;SDS011;19554;42.652;23.364;2023-08-20T10:18:24;4.38;;;3.55;;
33190;SDS011;19554;42.652;23.364;2023-08-20T10:20:50;7.80;;;3.42;;
33190;SDS011;19554;42.652;23.364;2023-08-20T10:23:17;3.75;;;3.30;;
33190;SDS011;19554;42.652;23.364;2023-08-20T10:25:47;8.05;;;3.97;;
33190;SDS011;19554;42.652;23.364;2023-08-20T10:28:14;4.28;;;3.50;;
33190;SDS011;19554;42.652;23.364;2023-08-20T10:33:55;6.00;;;4.00;;
33190;SDS011;19554;42.652;23.364;2023-08-20T10:36:21;3.83;;;3.53;;
33190;SDS011;19554;42.652;23.364;2023-08-20T10:38:51;6.43;;;4.07;;
33190;SDS011;19554;42.652;23.364;2023-08-20T10:41:24;4.32;;;3.40;;
33190;SDS011;19554;42.652;23.364;2023-08-20T10:48:46;4.25;;;3.85;;
33190;SDS011;19554;42.652;23.364;2023-08-20T10:51:32;6.63;;;3.95;;
33190;SDS011;19554;42.652;23.364;2023-08-20T10:56:44;7.75;;;4.60;;
33190;SDS011;19554;42.652;23.364;2023-08-20T10:59:23;5.05;;;3.85;;
33190;SDS011;19554;42.652;23.364;2023-08-20T11:01:55;6.05;;;3.97;;
33190;SDS011;19554;42.652;23.364;2023-08-20T11:04:25;6.63;;;3.80;;
33190;SDS011;19554;42.652;23.364;2023-08-20T11:06:53;5.43;;;3.90;;
33190;SDS011;19554;42.652;23.364;2023-08-20T11:09:25;7.45;;;4.45;;
33190;SDS011;19554;42.652;23.364;2023-08-20T11:11:52;5.50;;;4.30;;
33190;SDS011;19554;42.652;23.364;2023-08-20T11:14:18;4.22;;;3.63;;
33190;SDS011;19554;42.652;23.364;2023-08-20T11:16:45;5.43;;;3.83;;
33190;SDS011;19554;42.652;23.364;2023-08-20T11:19:11;5.40;;;3.50;;
33190;SDS011;19554;42.652;23.364;2023-08-20T11:21:38;4.43;;;4.03;;
33190;SDS011;19554;42.652;23.364;2023-08-20T11:24:05;5.80;;;4.45;;
33190;SDS011;19554;42.652;23.364;2023-08-20T11:26:32;8.07;;;3.92;;
33190;SDS011;19554;42.652;23.364;2023-08-20T11:28:57;8.07;;;3.60;;
33190;SDS011;19554;42.652;23.364;2023-08-20T11:31:23;4.30;;;3.90;;
33190;SDS011;19554;42.652;23.364;2023-08-20T11:33:51;5.90;;;4.13;;
33190;SDS011;19554;42.652;23.364;2023-08-20T11:36:17;7.53;;;3.83;;
33190;SDS011;19554;42.652;23.364;2023-08-20T11:38:52;10.55;;;4.38;;
33190;SDS011;19554;42.652;23.364;2023-08-20T11:41:18;4.50;;;4.05;;
33190;SDS011;19554;42.652;23.364;2023-08-20T11:43:45;5.75;;;4.07;;
33190;SDS011;19554;42.652;23.364;2023-08-20T11:46:14;13.63;;;4.10;;
33190;SDS011;19554;42.652;23.364;2023-08-20T11:51:25;7.00;;;4.35;;
33190;SDS011;19554;42.652;23.364;2023-08-20T11:53:50;6.47;;;4.00;;
33190;SDS011;19554;42.652;23.364;2023-08-20T11:56:16;6.50;;;4.05;;
33190;SDS011;19554;42.652;23.364;2023-08-20T11:58:41;6.63;;;3.85;;
33190;SDS011;19554;42.652;23.364;2023-08-20T12:01:07;5.40;;;4.07;;
33190;SDS011;19554;42.652;23.364;2023-08-20T12:03:33;5.30;;;4.03;;
33190;SDS011;19554;42.652;23.364;2023-08-20T12:05:58;5.05;;;4.35;;
33190;SDS011;19554;42.652;23.364;2023-08-20T12:08:24;5.80;;;4.22;;
33190;SDS011;19554;42.652;23.364;2023-08-20T12:10:49;5.75;;;4.35;;
33190;SDS011;19554;42.652;23.364;2023-08-20T12:13:14;7.15;;;3.65;;
33190;SDS011;19554;42.652;23.364;2023-08-20T12:15:40;5.07;;;4.40;;
33190;SDS011;19554;42.652;23.364;2023-08-20T12:18:06;3.80;;;3.47;;
33190;SDS011;19554;42.652;23.364;2023-08-20T12:20:34;4.50;;;4.05;;
33190;SDS011;19554;42.652;23.364;2023-08-20T12:23:01;5.10;;;4.20;;
33190;SDS011;19554;42.652;23.364;2023-08-20T12:25:35;6.93;;;4.25;;
33190;SDS011;19554;42.652;23.364;2023-08-20T12:28:01;6.20;;;3.83;;
33190;SDS011;19554;42.652;23.364;2023-08-20T12:30:29;8.85;;;3.90;;
33190;SDS011;19554;42.652;23.364;2023-08-20T12:32:54;5.82;;;3.85;;
33190;SDS011;19554;42.652;23.364;2023-08-20T12:35:20;9.35;;;4.43;;
33190;SDS011;19554;42.652;23.364;2023-08-20T12:37:45;4.60;;;3.92;;
33190;SDS011;19554;42.652;23.364;2023-08-20T12:40:11;6.88;;;3.92;;
33190;SDS011;19554;42.652;23.364;2023-08-20T12:42:37;8.13;;;4.15;;
33190;SDS011;19554;42.652;23.364;2023-08-20T12:45:06;6.60;;;3.75;;
33190;SDS011;19554;42.652;23.364;2023-08-20T12:47:33;5.88;;;4.25;;
33190;SDS011;19554;42.652;23.364;2023-08-20T12:49:59;6.57;;;4.00;;
33190;SDS011;19554;42.652;23.364;2023-08-20T12:52:24;4.30;;;3.90;;
33190;SDS011;19554;42.652;23.364;2023-08-20T12:54:50;5.03;;;3.97;;
33190;SDS011;19554;42.652;23.364;2023-08-20T12:57:15;9.68;;;4.05;;
33190;SDS011;19554;42.652;23.364;2023-08-20T12:59:40;11.43;;;4.50;;
33190;SDS011;19554;42.652;23.364;2023-08-20T13:02:06;9.90;;;4.20;;
33190;SDS011;19554;42.652;23.364;2023-08-20T13:04:32;7.70;;;4.35;;
33190;SDS011;19554;42.652;23.364;2023-08-20T13:06:57;4.40;;;3.95;;
33190;SDS011;19554;42.652;23.364;2023-08-20T13:09:23;12.75;;;4.32;;
33190;SDS011;19554;42.652;23.364;2023-08-20T13:11:48;6.25;;;3.67;;
33190;SDS011;19554;42.652;23.364;2023-08-20T13:14:18;6.78;;;3.88;;
33190;SDS011;19554;42.652;23.364;2023-08-20T13:16:43;5.50;;;3.63;;
33190;SDS011;19554;42.652;23.364;2023-08-20T13:19:09;7.53;;;4.20;;
33190;SDS011;19554;42.652;23.364;2023-08-20T13:21:34;5.80;;;3.83;;
33190;SDS011;19554;42.652;23.364;2023-08-20T13:24:00;7.30;;;3.90;;
33190;SDS011;19554;42.652;23.364;2023-08-20T13:26:25;7.50;;;3.83;;
33190;SDS011;19554;42.652;23.364;2023-08-20T13:28:50;6.90;;;3.95;;
33190;SDS011;19554;42.652;23.364;2023-08-20T13:31:16;4.00;;;3.60;;
33190;SDS011;19554;42.652;23.364;2023-08-20T13:33:41;4.20;;;3.80;;
33190;SDS011;19554;42.652;23.364;2023-08-20T13:36:06;4.47;;;3.67;;
33190;SDS011;19554;42.652;23.364;2023-08-20T13:38:34;5.50;;;4.00;;
33190;SDS011;19554;42.652;23.364;2023-08-20T13:41:00;4.55;;;4.05;;
33190;SDS011;19554;42.652;23.364;2023-08-20T13:43:26;10.43;;;9.25;;
33190;SDS011;19554;42.652;23.364;2023-08-20T13:45:51;4.32;;;3.83;;
33190;SDS011;19554;42.652;23.364;2023-08-20T13:48:16;5.30;;;3.92;;
33190;SDS011;19554;42.652;23.364;2023-08-20T13:50:42;5.85;;;3.83;;
33190;SDS011;19554;42.652;23.364;2023-08-20T13:53:07;5.22;;;3.80;;
33190;SDS011;19554;42.652;23.364;2023-08-20T13:55:32;5.65;;;3.40;;
33190;SDS011;19554;42.652;23.364;2023-08-20T13:57:58;5.95;;;3.97;;
33190;SDS011;19554;42.652;23.364;2023-08-20T14:00:23;5.75;;;3.63;;
33190;SDS011;19554;42.652;23.364;2023-08-20T14:02:49;7.90;;;3.78;;
33190;SDS011;19554;42.652;23.364;2023-08-20T14:05:14;5.38;;;3.47;;
33190;SDS011;19554;42.652;23.364;2023-08-20T14:07:40;4.80;;;3.33;;
33190;SDS011;19554;42.652;23.364;2023-08-20T14:10:06;5.10;;;3.65;;
33190;SDS011;19554;42.652;23.364;2023-08-20T14:12:33;8.25;;;4.25;;
33190;SDS011;19554;42.652;23.364;2023-08-20T14:14:59;5.78;;;3.90;;
33190;SDS011;19554;42.652;23.364;2023-08-20T14:17:24;7.47;;;4.00;;
33190;SDS011;19554;42.652;23.364;2023-08-20T14:19:50;6.60;;;3.90;;
33190;SDS011;19554;42.652;23.364;2023-08-20T14:22:15;6.55;;;4.10;;
33190;SDS011;19554;42.652;23.364;2023-08-20T14:24:41;6.43;;;3.55;;
33190;SDS011;19554;42.652;23.364;2023-08-20T14:27:06;3.95;;;3.55;;
33190;SDS011;19554;42.652;23.364;2023-08-20T14:29:32;6.88;;;3.65;;
33190;SDS011;19554;42.652;23.364;2023-08-20T14:31:58;4.47;;;3.88;;
33190;SDS011;19554;42.652;23.364;2023-08-20T14:34:23;5.10;;;3.35;;
33190;SDS011;19554;42.652;23.364;2023-08-20T14:36:48;4.82;;;3.80;;
33190;SDS011;19554;42.652;23.364;2023-08-20T14:39:14;5.13;;;3.63;;
33190;SDS011;19554;42.652;23.364;2023-08-20T14:41:39;6.85;;;3.85;;
33190;SDS011;19554;42.652;23.364;2023-08-20T14:44:05;4.38;;;3.63;;